KBUY

Burlington-Alamance Regional Airport

Burlington, North Carolina, USA
METAR KBUY 220454Z AUTO 00000KT 10SM CLR 23/21 A2980 RMK AO2 RAE36 SLP084 P0004 T02280211 403220217
Observed Flight Rules
Jun-22 @ 04:54 UTC (37 minutes ago) Visual Flight Rules
Visibility Clouds
10 miles
  • Clear skies
Temperatures Readings Precipitation
Current 23°C / 73°F
Dewpoint 21°C / 70°F
Humidity 89%
Altimeter 29.8" Hg
Pressure 1008.4 hPa
Elevation 180
Current Rain 0.04
METAR KBUY 220454Z AUTO 00000KT 10SM CLR 23/21 A2980 RMK AO2 RAE36 SLP084 P0004 T02280211 403220217
Observed Flight Rules
Jun-22 @ 04:54 UTC
(37 minutes ago)
VFR
Clouds
  • Clear skies
Temperature Dewpoint
23°C / 73°F 21°C / 70°F
Humidity Altimeter Pressure
89% 29.8" Hg 1008.4 hPa
Current Rain
0.04